createdAt,value
2019-04-22T00:02:22.573Z,12.70
2019-04-22T00:05:09.597Z,12.80
2019-04-22T00:07:56.870Z,12.70
2019-04-22T00:10:35.440Z,12.60
2019-04-22T00:13:21.955Z,12.60
2019-04-22T00:15:42.428Z,12.60
2019-04-22T00:18:26.726Z,12.60
2019-04-22T00:20:58.412Z,12.60
2019-04-22T00:23:37.707Z,12.70
2019-04-22T00:26:26.107Z,12.60
2019-04-22T00:29:03.535Z,12.50
2019-04-22T00:31:54.713Z,12.40
2019-04-22T00:34:30.177Z,12.40
2019-04-22T00:37:01.004Z,12.40
2019-04-22T00:39:54.602Z,12.40
2019-04-22T00:42:17.257Z,12.40
2019-04-22T00:44:51.784Z,12.40
2019-04-22T00:47:50.765Z,12.40
2019-04-22T00:53:04.438Z,12.30
2019-04-22T00:55:31.292Z,12.30
2019-04-22T00:58:08.078Z,12.30
2019-04-22T01:00:45.079Z,12.20
2019-04-22T01:03:44.743Z,12.20
2019-04-22T01:06:10.737Z,12.00
2019-04-22T01:08:46.841Z,12.10
2019-04-22T01:11:17.264Z,12.00
2019-04-22T01:13:53.277Z,12.00
2019-04-22T01:16:23.328Z,11.90
2019-04-22T01:18:53.793Z,11.80
2019-04-22T01:21:37.087Z,11.80
2019-04-22T01:23:57.565Z,11.70
2019-04-22T01:26:30.080Z,11.70
2019-04-22T01:29:02.469Z,11.60
2019-04-22T01:31:25.342Z,11.60
2019-04-22T01:37:37.303Z,11.60
2019-04-22T01:40:16.668Z,11.50
2019-04-22T01:43:00.417Z,11.40
2019-04-22T01:45:28.107Z,11.40
2019-04-22T01:48:00.542Z,11.40
2019-04-22T01:50:45.854Z,11.40
2019-04-22T01:53:21.319Z,11.40
2019-04-22T01:55:50.056Z,11.40
2019-04-22T01:58:27.757Z,11.10
2019-04-22T02:01:00.035Z,11.10
2019-04-22T02:03:43.074Z,11.10
2019-04-22T02:06:09.007Z,11.20
2019-04-22T02:08:46.661Z,11.00
2019-04-22T02:11:24.117Z,10.90
2019-04-22T02:13:49.797Z,10.70
2019-04-22T02:16:21.383Z,10.80
2019-04-22T02:19:01.237Z,10.70
2019-04-22T02:21:28.578Z,10.60
2019-04-22T02:24:18.072Z,10.70
2019-04-22T02:26:35.496Z,10.60
2019-04-22T02:29:06.611Z,10.60
2019-04-22T02:34:35.161Z,10.50
2019-04-22T02:36:58.094Z,10.40
2019-04-22T02:42:14.413Z,10.30
2019-04-22T02:44:37.410Z,10.30
2019-04-22T02:57:10.154Z,10.30
2019-04-22T02:59:34.586Z,10.00
2019-04-22T03:02:07.655Z,10.00
2019-04-22T03:04:37.570Z,9.90
2019-04-22T03:07:09.028Z,9.90
2019-04-22T03:09:51.057Z,9.90
2019-04-22T03:17:29.198Z,9.60
2019-04-22T03:20:08.992Z,9.70
2019-04-22T03:22:55.129Z,9.70
2019-04-22T03:27:42.863Z,9.70
2019-04-22T03:33:11.724Z,9.50
2019-04-22T03:40:46.367Z,9.60
2019-04-22T03:49:10.867Z,9.60
2019-04-22T03:51:47.869Z,9.50
2019-04-22T03:54:10.938Z,9.50
2019-04-22T04:10:39.710Z,9.00
2019-04-22T04:13:33.203Z,9.10
2019-04-22T04:16:07.076Z,9.20
2019-04-22T04:29:22.136Z,9.10
2019-04-22T04:31:41.320Z,9.10
2019-04-22T04:34:17.116Z,9.20
2019-04-22T04:36:51.893Z,9.10
2019-04-22T04:39:18.843Z,9.10
2019-04-22T04:41:59.606Z,9.10
2019-04-22T04:44:34.285Z,9.10
2019-04-22T04:52:14.496Z,8.90
2019-04-22T04:58:36.915Z,8.90
2019-04-22T05:01:05.665Z,8.90
2019-04-22T05:06:12.587Z,8.90
2019-04-22T05:11:16.206Z,8.90
2019-04-22T05:21:21.778Z,8.60
2019-04-22T05:34:19.358Z,8.80
2019-04-22T05:36:50.231Z,8.70
2019-04-22T05:39:15.811Z,8.80
2019-04-22T05:41:54.879Z,8.80
2019-04-22T05:44:22.293Z,8.90
2019-04-22T05:46:52.735Z,8.90
2019-04-22T05:49:33.254Z,8.80
2019-04-22T05:52:02.770Z,8.90
2019-04-22T05:54:44.720Z,9.20
2019-04-22T06:04:29.531Z,9.50
2019-04-22T06:07:00.522Z,9.60
2019-04-22T06:09:32.270Z,9.40
2019-04-22T06:12:04.943Z,9.40
2019-04-22T06:14:49.240Z,9.50
2019-04-22T06:17:24.764Z,9.50
2019-04-22T06:19:57.663Z,9.60
2019-04-22T06:22:38.707Z,9.80
2019-04-22T06:25:17.734Z,9.70
2019-04-22T06:27:41.299Z,9.70
2019-04-22T06:30:19.043Z,9.70
2019-04-22T06:32:53.902Z,9.60
2019-04-22T06:35:29.767Z,9.50
2019-04-22T06:43:03.420Z,9.80
2019-04-22T06:45:51.709Z,9.90
2019-04-22T06:48:33.265Z,10.00
2019-04-22T06:55:05.927Z,10.10
2019-04-22T06:57:30.811Z,10.00
2019-04-22T07:00:11.855Z,10.30
2019-04-22T07:02:56.374Z,10.40
2019-04-22T07:05:16.633Z,10.30
2019-04-22T07:07:46.251Z,10.50
2019-04-22T07:10:30.106Z,10.70
2019-04-22T07:12:49.825Z,10.60
2019-04-22T07:15:42.361Z,10.70
2019-04-22T07:18:07.571Z,10.90
2019-04-22T07:20:36.433Z,11.00
2019-04-22T07:23:19.585Z,11.30
2019-04-22T07:28:17.713Z,11.70
2019-04-22T07:30:54.609Z,11.70
2019-04-22T07:36:23.419Z,11.90
2019-04-22T07:38:29.839Z,12.10
2019-04-22T07:41:10.527Z,12.30
2019-04-22T07:46:13.599Z,12.40
2019-04-22T07:49:02.122Z,12.60
2019-04-22T07:51:20.216Z,13.00
2019-04-22T07:53:56.271Z,13.10
2019-04-22T07:56:29.465Z,13.30
2019-04-22T07:59:07.630Z,13.70
2019-04-22T08:01:36.644Z,13.80
2019-04-22T08:04:45.652Z,13.90
2019-04-22T08:09:19.831Z,14.10
2019-04-22T08:15:50.294Z,14.40
2019-04-22T08:20:52.084Z,14.80
2019-04-22T08:23:25.932Z,15.00
2019-04-22T08:25:55.706Z,15.40
2019-04-22T08:28:31.719Z,15.80
2019-04-22T08:31:11.914Z,16.00
2019-04-22T08:36:26.294Z,16.40
2019-04-22T08:38:50.735Z,16.50
2019-04-22T08:41:27.300Z,16.60
2019-04-22T08:46:40.509Z,17.20
2019-04-22T08:49:00.800Z,17.40
2019-04-22T08:51:49.353Z,17.60
2019-04-22T08:58:03.171Z,17.80
2019-04-22T09:00:21.562Z,17.80
2019-04-22T09:02:53.973Z,17.90
2019-04-22T09:09:09.762Z,18.10
2019-04-22T09:11:44.683Z,18.10
2019-04-22T09:14:14.087Z,18.10
2019-04-22T09:16:55.442Z,18.40
2019-04-22T09:19:32.262Z,18.70
2019-04-22T09:25:11.699Z,19.00
2019-04-22T09:30:25.994Z,19.10
2019-04-22T09:32:55.769Z,19.20
2019-04-22T09:35:31.546Z,19.40
2019-04-22T09:38:19.894Z,19.00
2019-04-22T09:40:39.084Z,19.30
2019-04-22T09:43:32.077Z,19.20
2019-04-22T09:46:06.538Z,19.40
2019-04-22T09:48:41.725Z,19.40
2019-04-22T09:51:08.582Z,19.50
2019-04-22T09:56:19.390Z,19.90
2019-04-22T09:58:51.656Z,20.10
2019-04-22T10:01:38.464Z,20.30
2019-04-22T10:04:23.450Z,20.40
2019-04-22T10:06:39.461Z,20.50
2019-04-22T10:09:44.288Z,20.60
2019-04-22T10:11:47.019Z,20.80
2019-04-22T10:14:19.040Z,20.70
2019-04-22T10:19:23.137Z,21.00
2019-04-22T10:22:19.965Z,21.10
2019-04-22T10:24:36.913Z,21.20
2019-04-22T10:27:08.056Z,21.30
2019-04-22T10:29:51.464Z,21.40
2019-04-22T10:32:11.241Z,21.60
2019-04-22T10:34:33.959Z,21.70
2019-04-22T10:37:02.733Z,21.70
2019-04-22T10:39:39.903Z,21.80
2019-04-22T10:42:09.098Z,21.70
2019-04-22T10:44:41.460Z,21.60
2019-04-22T10:50:28.147Z,21.60
2019-04-22T10:52:59.863Z,21.50
2019-04-22T10:55:31.838Z,21.60
2019-04-22T10:58:04.385Z,21.60
2019-04-22T11:00:39.735Z,21.50
2019-04-22T11:03:13.915Z,21.70
2019-04-22T11:05:46.238Z,21.90
2019-04-22T11:08:27.162Z,21.70
2019-04-22T11:11:07.126Z,21.30
2019-04-22T11:13:33.922Z,21.70
2019-04-22T11:16:05.541Z,22.00
2019-04-22T11:18:39.287Z,22.20
2019-04-22T11:21:11.977Z,22.20
2019-04-22T11:23:44.676Z,22.70
2019-04-22T11:26:17.597Z,22.90
2019-04-22T11:28:49.726Z,23.60
2019-04-22T11:31:21.525Z,22.80
2019-04-22T11:33:54.431Z,23.70
2019-04-22T11:36:29.164Z,24.40
2019-04-22T11:39:03.555Z,24.70
2019-04-22T11:41:33.892Z,24.90
2019-04-22T11:44:07.563Z,25.00
2019-04-22T11:46:41.255Z,25.00
2019-04-22T11:49:13.963Z,24.40
2019-04-22T11:55:17.052Z,24.90
2019-04-22T12:04:49.789Z,25.40
2019-04-22T12:07:23.423Z,26.20
2019-04-22T12:09:55.598Z,26.00
2019-04-22T12:12:27.814Z,26.10
2019-04-22T12:15:00.786Z,26.40
2019-04-22T12:17:33.871Z,25.80
2019-04-22T12:20:08.745Z,25.80
2019-04-22T12:22:39.016Z,26.30
2019-04-22T12:25:12.641Z,26.50
2019-04-22T12:27:45.690Z,26.30
2019-04-22T12:30:21.387Z,26.20
2019-04-22T12:32:52.770Z,26.20
2019-04-22T12:35:24.511Z,25.50
2019-04-22T12:41:21.609Z,25.50
2019-04-22T12:43:53.529Z,24.70
2019-04-22T12:46:26.073Z,25.20
2019-04-22T12:48:58.232Z,25.60
2019-04-22T12:51:31.179Z,25.20
2019-04-22T12:54:03.389Z,25.10
2019-04-22T12:56:35.483Z,25.50
2019-04-22T12:59:07.675Z,26.10
2019-04-22T13:01:40.539Z,26.40
2019-04-22T13:04:14.225Z,26.20
2019-04-22T13:06:46.060Z,25.80
2019-04-22T13:09:19.111Z,26.40
2019-04-22T13:11:52.961Z,27.30
2019-04-22T13:18:03.208Z,26.60
2019-04-22T13:20:24.298Z,26.90
2019-04-22T13:22:56.938Z,27.30
2019-04-22T13:25:30.282Z,27.40
2019-04-22T13:28:02.972Z,27.90
2019-04-22T13:30:38.425Z,28.20
2019-04-22T13:33:10.802Z,28.30
2019-04-22T13:35:43.638Z,28.10
2019-04-22T13:38:17.151Z,27.30
2019-04-22T13:41:12.782Z,27.90
2019-04-22T13:43:26.758Z,28.00
2019-04-22T13:45:59.411Z,27.30
2019-04-22T13:48:52.760Z,27.80
2019-04-22T13:51:43.265Z,28.20
2019-04-22T13:56:30.453Z,28.00
2019-04-22T13:58:57.732Z,27.80
2019-04-22T14:01:22.743Z,27.20
2019-04-22T14:04:02.933Z,27.00
2019-04-22T14:06:34.719Z,26.90
2019-04-22T14:09:09.571Z,26.80
2019-04-22T14:11:49.401Z,26.80
2019-04-22T14:14:15.531Z,27.00
2019-04-22T14:16:49.117Z,27.20
2019-04-22T14:19:20.526Z,27.50
2019-04-22T14:21:55.658Z,27.80
2019-04-22T14:27:47.977Z,27.70
2019-04-22T14:30:08.537Z,27.70
2019-04-22T14:32:39.991Z,27.80
2019-04-22T14:35:13.233Z,27.90
2019-04-22T14:37:45.874Z,27.90
2019-04-22T14:40:18.742Z,27.50
2019-04-22T14:43:10.101Z,27.30
2019-04-22T14:46:01.562Z,27.00
2019-04-22T14:48:26.680Z,26.80
2019-04-22T14:50:51.863Z,26.60
2019-04-22T14:53:26.051Z,26.50
2019-04-22T14:55:40.357Z,26.20
2019-04-22T14:58:13.054Z,26.20
2019-04-22T15:00:46.000Z,26.00
2019-04-22T15:03:17.677Z,25.90
2019-04-22T15:05:50.394Z,25.60
2019-04-22T15:08:22.945Z,25.50
2019-04-22T15:10:58.247Z,25.70
2019-04-22T15:13:31.456Z,25.80
2019-04-22T15:16:25.822Z,25.80
2019-04-22T15:19:20.177Z,26.00
2019-04-22T15:21:52.522Z,25.90
2019-04-22T15:24:30.230Z,26.00
2019-04-22T15:27:02.640Z,25.80
2019-04-22T15:29:33.822Z,25.60
2019-04-22T15:32:07.543Z,25.60
2019-04-22T15:34:39.483Z,25.60
2019-04-22T15:37:12.285Z,25.40
2019-04-22T15:39:43.953Z,25.20
2019-04-22T15:42:22.792Z,25.20
2019-04-22T15:48:44.074Z,25.70
2019-04-22T15:51:16.541Z,25.60
2019-04-22T15:53:51.929Z,25.50
2019-04-22T15:56:42.382Z,25.40
2019-04-22T15:59:30.180Z,25.60
2019-04-22T16:01:48.590Z,25.60
2019-04-22T16:07:45.822Z,25.80
2019-04-22T16:10:19.808Z,26.00
2019-04-22T16:13:00.048Z,26.30
2019-04-22T16:15:24.786Z,26.20
2019-04-22T16:17:59.425Z,26.50
2019-04-22T16:20:41.072Z,26.40
2019-04-22T16:23:21.848Z,26.60
2019-04-22T16:26:16.153Z,26.60
2019-04-22T16:28:49.227Z,26.50
2019-04-22T16:31:22.478Z,26.80
2019-04-22T16:34:13.448Z,26.80
2019-04-22T16:36:45.087Z,26.80
2019-04-22T16:39:18.410Z,26.60
2019-04-22T16:41:50.915Z,26.60
2019-04-22T16:44:26.721Z,26.40
2019-04-22T16:47:01.557Z,26.20
2019-04-22T16:49:45.683Z,26.10
2019-04-22T16:52:18.292Z,25.80
2019-04-22T16:54:50.740Z,25.30
2019-04-22T17:01:06.991Z,24.90
2019-04-22T17:04:22.903Z,24.70
2019-04-22T17:07:05.870Z,24.40
2019-04-22T17:09:37.526Z,24.00
2019-04-22T17:12:09.826Z,23.70
2019-04-22T17:14:50.393Z,23.60
2019-04-22T17:17:18.220Z,23.50
2019-04-22T17:19:51.257Z,23.30
2019-04-22T17:25:38.471Z,23.10
2019-04-22T17:28:10.300Z,23.00
2019-04-22T17:30:41.596Z,22.80
2019-04-22T17:33:14.532Z,22.70
2019-04-22T17:35:48.547Z,22.50
2019-04-22T17:38:28.525Z,22.50
2019-04-22T17:41:08.788Z,22.30
2019-04-22T17:44:06.578Z,22.10
2019-04-22T17:46:24.796Z,22.00
2019-04-22T17:52:36.581Z,21.60
2019-04-22T17:55:12.623Z,21.60
2019-04-22T17:57:44.679Z,21.40
2019-04-22T18:00:19.016Z,21.20
2019-04-22T18:02:51.370Z,21.10
2019-04-22T18:05:11.035Z,21.00
2019-04-22T18:08:05.542Z,20.90
2019-04-22T18:10:37.534Z,20.80
2019-04-22T18:13:23.813Z,20.80
2019-04-22T18:15:43.575Z,20.70
2019-04-22T18:18:21.710Z,20.60
2019-04-22T18:21:09.827Z,20.50
2019-04-22T18:23:40.125Z,20.40
2019-04-22T18:26:23.112Z,20.30
2019-04-22T18:28:55.923Z,20.10
2019-04-22T18:31:21.850Z,20.10
2019-04-22T18:33:58.701Z,20.00
2019-04-22T18:36:33.303Z,20.00
2019-04-22T18:39:38.981Z,20.00
2019-04-22T18:42:03.666Z,19.90
2019-04-22T18:44:40.269Z,19.90
2019-04-22T18:47:10.699Z,19.80
2019-04-22T18:49:43.226Z,19.80
2019-04-22T18:52:42.714Z,19.80
2019-04-22T18:55:39.124Z,19.80
2019-04-22T18:58:09.007Z,19.80
2019-04-22T19:07:24.293Z,19.50
2019-04-22T19:10:27.542Z,19.50
2019-04-22T19:13:17.546Z,19.40
2019-04-22T19:21:43.289Z,18.70
2019-04-22T19:24:18.128Z,18.50
2019-04-22T19:26:55.914Z,18.40
2019-04-22T19:29:25.674Z,18.30
2019-04-22T19:32:03.960Z,18.30
2019-04-22T19:34:38.491Z,17.90
2019-04-22T19:37:07.063Z,17.80
2019-04-22T19:39:40.970Z,17.70
2019-04-22T19:42:27.092Z,17.70
2019-04-22T19:44:50.810Z,17.70
2019-04-22T19:50:09.010Z,17.60
2019-04-22T19:52:35.573Z,17.50
2019-04-22T19:55:07.746Z,17.40
2019-04-22T20:04:46.239Z,17.60
2019-04-22T20:07:18.309Z,17.50
2019-04-22T20:09:55.632Z,17.30
2019-04-22T20:12:21.411Z,17.30
2019-04-22T20:14:55.617Z,17.20
2019-04-22T20:18:22.225Z,17.20
2019-04-22T20:21:18.289Z,17.30
2019-04-22T20:23:39.309Z,17.20
2019-04-22T20:26:16.263Z,17.30
2019-04-22T20:28:58.957Z,17.20
2019-04-22T20:31:30.346Z,17.10
2019-04-22T20:34:12.953Z,17.10
2019-04-22T20:37:01.882Z,17.10
2019-04-22T20:39:07.825Z,16.90
2019-04-22T20:41:46.135Z,16.70
2019-04-22T20:44:26.093Z,16.60
2019-04-22T20:46:49.112Z,16.50
2019-04-22T20:49:30.943Z,16.50
2019-04-22T20:52:24.022Z,16.50
2019-04-22T20:54:37.293Z,16.50
2019-04-22T20:57:15.816Z,16.40
2019-04-22T20:59:48.359Z,16.40
2019-04-22T21:02:17.906Z,16.40
2019-04-22T21:04:48.821Z,16.40
2019-04-22T21:07:34.428Z,16.40
2019-04-22T21:10:09.110Z,16.40
2019-04-22T21:12:36.443Z,16.30
2019-04-22T21:15:23.840Z,16.30
2019-04-22T21:21:19.594Z,16.30
2019-04-22T21:23:45.928Z,16.20
2019-04-22T21:26:26.644Z,16.20
2019-04-22T21:29:01.116Z,16.00
2019-04-22T21:31:38.587Z,15.80
2019-04-22T21:34:10.128Z,15.70
2019-04-22T21:36:48.043Z,15.70
2019-04-22T21:39:19.167Z,15.40
2019-04-22T21:41:55.702Z,15.30
2019-04-22T21:44:26.729Z,15.50
2019-04-22T21:47:10.453Z,15.50
2019-04-22T21:49:35.519Z,15.50
2019-04-22T21:52:13.936Z,15.60
2019-04-22T21:54:50.176Z,15.70
2019-04-22T21:58:00.441Z,15.70
2019-04-22T22:00:31.216Z,15.60
2019-04-22T22:02:58.609Z,15.60
2019-04-22T22:05:26.618Z,15.50
2019-04-22T22:08:46.046Z,15.50
2019-04-22T22:14:33.516Z,15.50
2019-04-22T22:17:02.257Z,15.60
2019-04-22T22:19:44.449Z,15.80
2019-04-22T22:22:40.843Z,16.10
2019-04-22T22:24:55.115Z,16.30
2019-04-22T22:27:25.296Z,16.40
2019-04-22T22:30:06.668Z,16.50
2019-04-22T22:32:32.136Z,16.30
2019-04-22T22:35:05.573Z,16.10
2019-04-22T22:37:23.814Z,15.80
2019-04-22T22:39:56.562Z,15.70
2019-04-22T22:42:30.169Z,15.60
2019-04-22T22:45:04.726Z,15.60
2019-04-22T22:48:09.664Z,15.50
2019-04-22T22:50:40.286Z,15.50
2019-04-22T22:53:22.336Z,15.30
2019-04-22T22:55:46.312Z,15.40
2019-04-22T22:58:19.137Z,15.30
2019-04-22T23:00:44.697Z,15.40
2019-04-22T23:03:40.521Z,15.40
2019-04-22T23:05:59.140Z,15.40
2019-04-22T23:08:35.924Z,15.30
2019-04-22T23:11:05.030Z,15.30
2019-04-22T23:13:37.164Z,15.20
2019-04-22T23:16:04.294Z,15.10
2019-04-22T23:18:23.768Z,15.10
2019-04-22T23:20:57.290Z,15.10
2019-04-22T23:23:59.322Z,15.10
2019-04-22T23:26:43.927Z,15.00
2019-04-22T23:29:32.692Z,15.10
2019-04-22T23:32:21.082Z,15.00
2019-04-22T23:35:33.858Z,14.80
2019-04-22T23:38:07.532Z,14.80
2019-04-22T23:40:57.104Z,14.60
2019-04-22T23:43:24.083Z,14.60
2019-04-22T23:45:50.264Z,14.70
2019-04-22T23:48:17.982Z,14.60
2019-04-22T23:50:55.601Z,14.60
2019-04-22T23:53:57.906Z,14.50
2019-04-22T23:56:07.935Z,14.50
2019-04-22T23:59:02.642Z,14.50
